Time;durP1;ratioP1;P1;durP2;ratioP2;P2;SDS_P1;SDS_P2;PMS_P1;PMS_P2;Temp;Humidity;BMP_temperature;BMP_pressure;BME280_temperature;BME280_humidity;BME280_pressure;Samples;Min_cycle;Max_cycle;Signal;HPM_P1;HPM_P2
2022/02/22 00:00:16;;;;;;;7.00;1.80;;;;;;;6.37;75.83;100449.75;5031873;28;20966;-76
2022/02/22 00:02:42;;;;;;;9.95;2.28;;;;;;;6.50;75.25;100450.47;5025629;28;20443;-76
2022/02/22 00:05:10;;;;;;;5.00;2.05;;;;;;;6.39;75.50;100458.44;5030481;28;20432;-76
2022/02/22 00:07:35;;;;;;;9.50;2.67;;;;;;;6.46;75.41;100451.94;5027762;28;20906;-76
2022/02/22 00:10:00;;;;;;;10.83;2.43;;;;;;;6.46;75.39;100453.81;5023755;28;20404;-76
2022/02/22 00:12:26;;;;;;;10.00;2.40;;;;;;;6.54;75.16;100446.31;5028211;28;20525;-77
2022/02/22 00:14:51;;;;;;;14.10;3.20;;;;;;;6.53;75.46;100451.91;5029129;28;20924;-77
2022/02/22 00:17:16;;;;;;;10.07;2.63;;;;;;;6.58;75.13;100460.16;5016421;28;20456;-77
2022/02/22 00:19:41;;;;;;;11.03;2.33;;;;;;;6.57;74.90;100464.72;5027158;28;20406;-76
2022/02/22 00:22:07;;;;;;;9.63;2.70;;;;;;;6.59;75.39;100468.00;5026569;28;20438;-76
2022/02/22 00:24:32;;;;;;;9.17;2.47;;;;;;;6.60;75.43;100480.44;5025827;28;20805;-76
2022/02/22 00:26:58;;;;;;;9.90;3.08;;;;;;;6.51;76.06;100481.75;5020578;28;20405;-76
2022/02/22 00:29:23;;;;;;;12.68;2.53;;;;;;;6.52;75.15;100490.66;5025118;28;20464;-76
2022/02/22 00:31:48;;;;;;;11.37;2.50;;;;;;;6.57;75.62;100486.25;5031123;28;20403;-76
2022/02/22 00:34:14;;;;;;;8.17;2.63;;;;;;;6.54;75.16;100493.94;5028629;28;20409;-77
2022/02/22 00:36:39;;;;;;;7.57;2.87;;;;;;;6.46;75.70;100503.09;5029002;28;20779;-76
2022/02/22 00:39:05;;;;;;;6.93;2.10;;;;;;;6.54;75.21;100508.22;5022222;28;20407;-77
2022/02/22 00:41:31;;;;;;;8.63;1.87;;;;;;;6.53;75.03;100517.34;5038566;28;20397;-76
2022/02/22 00:43:56;;;;;;;7.63;2.05;;;;;;;6.48;75.49;100527.13;5027908;28;20446;-76
2022/02/22 00:46:22;;;;;;;11.27;2.53;;;;;;;6.46;76.77;100530.03;5025810;28;20399;-76
2022/02/22 00:48:47;;;;;;;7.97;2.00;;;;;;;6.53;77.18;100535.38;5020179;28;20777;-76
2022/02/22 00:51:12;;;;;;;11.80;2.53;;;;;;;6.50;78.38;100542.00;5023230;28;20431;-76
2022/02/22 00:53:38;;;;;;;9.53;2.20;;;;;;;6.48;78.31;100540.59;5030212;28;20395;-77
2022/02/22 00:56:03;;;;;;;9.55;2.30;;;;;;;6.44;78.29;100547.44;5024330;28;20419;-77
2022/02/22 00:58:29;;;;;;;9.23;3.05;;;;;;;6.41;78.25;100542.47;5020643;28;20414;-77
2022/02/22 01:00:54;;;;;;;9.73;1.97;;;;;;;6.42;78.64;100536.88;5038086;28;20409;-77
2022/02/22 01:03:19;;;;;;;9.30;2.78;;;;;;;6.39;78.73;100545.38;5038818;28;20477;-77
2022/02/22 01:05:44;;;;;;;8.07;2.13;;;;;;;6.41;77.58;100545.19;5030599;28;20395;-76
2022/02/22 01:08:10;;;;;;;10.13;2.43;;;;;;;6.37;78.17;100557.41;5016057;28;20416;-76
2022/02/22 01:10:35;;;;;;;7.13;2.80;;;;;;;6.37;78.14;100555.53;5028796;28;20407;-77
2022/02/22 01:13:00;;;;;;;10.83;2.70;;;;;;;6.42;77.48;100558.41;5028949;28;20411;-76
2022/02/22 01:15:26;;;;;;;10.65;2.65;;;;;;;6.49;77.14;100561.06;5023313;28;20424;-77
2022/02/22 01:17:51;;;;;;;12.52;2.22;;;;;;;6.39;77.14;100566.13;5018091;28;20419;-76
2022/02/22 01:20:17;;;;;;;8.30;2.43;;;;;;;6.39;77.24;100566.13;5030858;28;20798;-76
2022/02/22 01:22:42;;;;;;;11.80;2.37;;;;;;;6.35;76.97;100564.88;5024145;28;20809;-77
2022/02/22 01:25:09;;;;;;;10.23;2.20;;;;;;;6.28;77.21;100564.91;5024258;28;20399;-77
2022/02/22 01:27:35;;;;;;;9.70;2.83;;;;;;;6.15;77.32;100573.88;5017257;28;20421;-76
2022/02/22 01:30:00;;;;;;;9.07;2.28;;;;;;;6.07;77.32;100576.78;5035261;28;20416;-76
2022/02/22 01:32:26;;;;;;;8.83;2.53;;;;;;;6.03;77.22;100580.94;5028414;28;20410;-76
2022/02/22 01:34:52;;;;;;;8.45;1.98;;;;;;;6.02;77.46;100581.16;5030929;28;20502;-76
2022/02/22 01:37:17;;;;;;;10.47;2.20;;;;;;;6.01;77.30;100590.25;5028215;28;20530;-76
2022/02/22 01:39:42;;;;;;;7.83;2.03;;;;;;;6.01;77.11;100592.97;5021270;28;20466;-77
2022/02/22 01:42:08;;;;;;;6.87;2.03;;;;;;;5.98;77.07;100588.84;5029611;28;20762;-76
2022/02/22 01:44:33;;;;;;;9.50;2.40;;;;;;;5.91;77.25;100603.31;5026307;28;20896;-77
2022/02/22 01:47:02;;;;;;;3.73;1.40;;;;;;;5.87;77.64;100607.47;5021725;28;20408;-77
2022/02/22 01:49:28;;;;;;;9.73;2.15;;;;;;;5.85;77.76;100617.59;5030637;28;20407;-76
2022/02/22 01:51:54;;;;;;;9.88;1.90;;;;;;;5.80;77.66;100623.59;5031082;28;20410;-76
2022/02/22 01:54:22;;;;;;;6.35;1.70;;;;;;;5.72;78.06;100608.53;5036534;28;20395;-77
2022/02/22 01:56:48;;;;;;;9.30;1.73;;;;;;;5.78;77.90;100620.28;5020511;28;20505;-76
2022/02/22 01:59:13;;;;;;;9.97;2.03;;;;;;;5.77;77.54;100626.69;5025095;28;20523;-76
2022/02/22 02:01:39;;;;;;;8.60;1.83;;;;;;;5.70;77.87;100629.41;5030566;28;20470;-76
2022/02/22 02:04:05;;;;;;;8.77;1.97;;;;;;;5.72;77.30;100631.88;5029820;28;20766;-77
2022/02/22 02:06:36;;;;;;;11.45;2.20;;;;;;;5.70;77.80;100645.53;5030836;28;20477;-76
2022/02/22 02:09:02;;;;;;;5.75;2.30;;;;;;;5.65;77.99;100634.59;5040640;28;20427;-77
2022/02/22 02:11:28;;;;;;;7.97;1.90;;;;;;;5.63;77.77;100625.09;5027865;28;20419;-76
2022/02/22 02:13:53;;;;;;;7.13;1.73;;;;;;;5.61;78.09;100638.72;5030537;28;20391;-77
2022/02/22 02:16:18;;;;;;;7.40;2.30;;;;;;;5.60;78.10;100645.13;5027562;28;20431;-76
2022/02/22 02:18:44;;;;;;;6.93;1.80;;;;;;;5.58;77.81;100638.31;5029376;28;20411;-76
2022/02/22 02:21:10;;;;;;;6.97;1.60;;;;;;;5.58;78.22;100639.13;5029323;28;20404;-77
2022/02/22 02:23:35;;;;;;;7.28;2.58;;;;;;;5.54;78.60;100642.44;5021616;28;20435;-77
2022/02/22 02:26:00;;;;;;;9.43;1.97;;;;;;;5.53;78.64;100646.19;5032013;28;20436;-76
2022/02/22 02:28:26;;;;;;;9.30;2.00;;;;;;;5.53;78.89;100654.25;5031053;28;20441;-76
2022/02/22 02:30:51;;;;;;;5.77;1.93;;;;;;;5.55;78.59;100641.41;5032650;28;20415;-76
2022/02/22 02:33:16;;;;;;;6.87;2.53;;;;;;;5.59;78.83;100650.72;5024983;28;20926;-76
2022/02/22 02:35:42;;;;;;;8.65;3.00;;;;;;;5.58;78.91;100654.44;5033574;28;20407;-76
2022/02/22 02:38:07;;;;;;;7.47;2.00;;;;;;;5.59;78.41;100650.72;5026140;28;20914;-77
2022/02/22 02:40:32;;;;;;;10.83;2.40;;;;;;;5.53;78.75;100654.25;5032527;28;20810;-77
2022/02/22 02:42:58;;;;;;;8.67;1.87;;;;;;;5.50;78.69;100660.03;5026648;28;20487;-76
2022/02/22 02:45:23;;;;;;;7.87;2.33;;;;;;;5.39;79.31;100663.34;5033684;28;20395;-76
2022/02/22 02:47:49;;;;;;;7.33;1.63;;;;;;;5.46;79.15;100669.53;5032820;28;20403;-77
2022/02/22 02:50:14;;;;;;;6.53;1.73;;;;;;;5.41;79.16;100675.53;5029780;28;20488;-76
2022/02/22 02:52:39;;;;;;;4.50;1.90;;;;;;;5.38;79.37;100677.78;5033664;28;20411;-77
2022/02/22 02:55:05;;;;;;;4.70;1.70;;;;;;;5.41;79.44;100670.16;5033327;28;20399;-77
2022/02/22 02:57:30;;;;;;;7.63;2.25;;;;;;;5.44;79.46;100671.59;5031991;28;20502;-76
2022/02/22 02:59:56;;;;;;;8.03;2.07;;;;;;;5.49;79.14;100683.41;5031093;28;20554;-76
2022/02/22 03:02:21;;;;;;;9.57;2.40;;;;;;;5.43;79.16;100686.09;5033366;28;20398;-76
2022/02/22 03:04:47;;;;;;;7.97;1.63;;;;;;;5.45;79.36;100689.38;5032236;28;20406;-77
2022/02/22 03:07:12;;;;;;;5.87;1.50;;;;;;;5.47;79.15;100692.69;5022563;28;20781;-77
2022/02/22 03:09:37;;;;;;;3.67;1.30;;;;;;;5.52;79.36;100699.13;5033419;28;20885;-76
2022/02/22 03:12:03;;;;;;;5.67;1.60;;;;;;;5.49;79.75;100704.91;5023834;28;20423;-77
2022/02/22 03:14:28;;;;;;;11.87;2.50;;;;;;;5.55;79.31;100711.31;5029334;28;20967;-76
2022/02/22 03:16:54;;;;;;;4.80;1.70;;;;;;;5.62;79.25;100721.03;5027502;28;20521;-76
2022/02/22 03:19:19;;;;;;;6.77;2.23;;;;;;;5.66;78.99;100711.50;5026082;28;20407;-76
2022/02/22 03:21:44;;;;;;;4.87;1.50;;;;;;;5.70;79.10;100725.38;5029971;28;20411;-76
2022/02/22 03:24:09;;;;;;;8.48;2.08;;;;;;;5.71;79.43;100732.41;5024809;28;20874;-76
2022/02/22 03:26:35;;;;;;;5.50;2.00;;;;;;;5.84;79.05;100743.16;5025182;28;20876;-76
2022/02/22 03:29:01;;;;;;;8.30;1.70;;;;;;;5.92;79.14;100750.25;5023604;28;20435;-76
2022/02/22 03:31:28;;;;;;;8.40;1.90;;;;;;;5.95;79.37;100755.19;5025002;28;20431;-76
2022/02/22 03:33:53;;;;;;;4.82;1.70;;;;;;;5.99;79.02;100761.84;5032320;28;20427;-76
2022/02/22 03:36:20;;;;;;;6.00;2.20;;;;;;;5.98;79.15;100757.47;5031748;28;20458;-76
2022/02/22 03:38:46;;;;;;;10.83;2.50;;;;;;;6.00;79.31;100758.09;5028899;28;20486;-76
2022/02/22 03:41:11;;;;;;;7.70;1.93;;;;;;;5.96;79.58;100765.75;5029671;28;20418;-77
2022/02/22 03:43:36;;;;;;;6.60;2.40;;;;;;;6.02;79.40;100767.63;5031622;28;20890;-76
2022/02/22 03:46:02;;;;;;;5.17;2.00;;;;;;;6.02;79.05;100770.31;5027253;28;20411;-76
2022/02/22 03:48:27;;;;;;;8.40;1.87;;;;;;;5.97;79.36;100771.94;5026022;28;20407;-76
2022/02/22 03:50:53;;;;;;;7.00;1.87;;;;;;;5.91;79.54;100784.38;5027116;28;20415;-76
2022/02/22 03:53:18;;;;;;;7.50;1.85;;;;;;;5.96;79.65;100781.88;5033694;28;20844;-76
2022/02/22 03:55:44;;;;;;;5.07;2.43;;;;;;;5.96;79.34;100778.38;5019520;28;20428;-76
2022/02/22 03:58:09;;;;;;;7.20;2.03;;;;;;;5.90;79.57;100787.25;5028810;28;20418;-76
2022/02/22 04:00:37;;;;;;;7.00;1.70;;;;;;;5.90;79.48;100795.31;5032365;28;20502;-76
2022/02/22 04:03:03;;;;;;;5.13;2.17;;;;;;;5.84;79.11;100796.13;5028293;28;20414;-76
2022/02/22 04:05:29;;;;;;;7.82;2.40;;;;;;;5.71;79.66;100803.16;5023132;28;20413;-77
2022/02/22 04:07:55;;;;;;;8.10;2.38;;;;;;;5.66;79.84;100792.16;5016098;28;20423;-76
2022/02/22 04:10:20;;;;;;;6.90;1.73;;;;;;;5.65;79.91;100795.06;5026197;28;20773;-76
2022/02/22 04:12:46;;;;;;;6.35;2.20;;;;;;;5.57;79.94;100798.78;5019618;28;20424;-76
2022/02/22 04:15:12;;;;;;;6.32;2.20;;;;;;;5.57;79.84;100804.16;5033745;28;20410;-76
2022/02/22 04:17:38;;;;;;;7.27;2.30;;;;;;;5.51;80.10;100812.22;5022900;28;20875;-76
2022/02/22 04:20:04;;;;;;;6.28;2.28;;;;;;;5.46;80.04;100823.59;5030415;28;20487;-76
2022/02/22 04:22:30;;;;;;;8.18;1.67;;;;;;;5.38;80.57;100821.06;5032027;28;20403;-76
2022/02/22 04:24:55;;;;;;;9.55;2.60;;;;;;;5.38;80.49;100822.91;5027809;28;20404;-76
2022/02/22 04:27:20;;;;;;;6.27;1.63;;;;;;;5.37;80.75;100827.47;5035277;28;20421;-76
2022/02/22 04:29:46;;;;;;;6.30;1.80;;;;;;;5.35;80.81;100824.16;5047316;28;20430;-76
2022/02/22 04:32:11;;;;;;;6.73;1.87;;;;;;;5.33;81.04;100828.09;5028310;28;20921;-76
2022/02/22 04:34:37;;;;;;;11.27;2.50;;;;;;;5.35;80.98;100829.53;5029716;28;20479;-76
2022/02/22 04:37:03;;;;;;;8.80;4.00;;;;;;;5.35;80.87;100834.91;5027697;28;20464;-76
2022/02/22 04:39:29;;;;;;;9.82;3.15;;;;;;;5.43;81.04;100845.50;5027899;28;20417;-76
2022/02/22 04:41:55;;;;;;;14.50;4.07;;;;;;;5.45;80.88;100842.59;5031518;28;20411;-76
2022/02/22 04:44:20;;;;;;;10.32;2.75;;;;;;;5.47;80.79;100835.13;5020199;28;20417;-76
2022/02/22 04:46:46;;;;;;;9.67;3.03;;;;;;;5.56;80.47;100839.31;5027121;28;20883;-76
2022/02/22 04:49:12;;;;;;;7.63;3.20;;;;;;;5.47;80.39;100838.66;5040813;28;20407;-76
2022/02/22 04:51:39;;;;;;;8.05;3.22;;;;;;;5.47;80.63;100849.41;5034955;28;20482;-76
2022/02/22 04:54:05;;;;;;;10.93;3.17;;;;;;;5.43;80.63;100836.59;5026512;28;20451;-76
2022/02/22 04:56:31;;;;;;;10.85;2.90;;;;;;;5.38;81.20;100839.88;5031369;28;20424;-76
2022/02/22 04:58:57;;;;;;;12.30;2.80;;;;;;;5.40;80.95;100835.13;5025420;28;20403;-76
2022/02/22 05:01:22;;;;;;;8.23;2.40;;;;;;;5.43;81.59;100848.19;5028973;28;20411;-76
2022/02/22 05:03:48;;;;;;;12.27;3.20;;;;;;;5.47;81.14;100852.09;5028169;28;20402;-76
2022/02/22 05:06:13;;;;;;;12.00;3.00;;;;;;;5.46;80.99;100855.84;5022199;28;20406;-76
2022/02/22 05:08:38;;;;;;;9.45;3.20;;;;;;;5.46;81.05;100861.22;5031169;28;20403;-76
2022/02/22 05:11:05;;;;;;;8.40;3.20;;;;;;;5.43;81.07;100852.72;5031178;28;20407;-75
2022/02/22 05:13:30;;;;;;;11.40;3.25;;;;;;;5.40;81.31;100864.69;5025423;28;20438;-76
2022/02/22 05:15:55;;;;;;;14.07;3.67;;;;;;;5.45;81.11;100864.94;5015679;28;20447;-76
2022/02/22 05:18:20;;;;;;;13.63;3.60;;;;;;;5.46;81.56;100868.44;5031409;28;20473;-76
2022/02/22 05:20:55;;;;;;;12.10;3.20;;;;;;;5.52;81.34;100863.09;5025189;28;21050;-76
2022/02/22 05:23:26;;;;;;;6.68;3.13;;;;;;;5.56;80.99;100866.22;5015085;28;20460;-76
2022/02/22 05:25:52;;;;;;;13.13;3.65;;;;;;;5.49;80.80;100859.97;5013674;28;20405;-76
2022/02/22 05:28:18;;;;;;;12.75;3.80;;;;;;;5.43;81.23;100867.00;5019559;28;20416;-76
2022/02/22 05:30:47;;;;;;;10.23;3.40;;;;;;;5.36;81.14;100873.38;5028192;28;20517;-76
2022/02/22 05:33:12;;;;;;;13.65;3.00;;;;;;;5.30;81.74;100864.25;5025692;28;20899;-75
2022/02/22 05:35:37;;;;;;;9.90;3.63;;;;;;;5.30;81.33;100876.88;5027452;28;20471;-75
2022/02/22 05:38:03;;;;;;;11.07;3.20;;;;;;;5.26;81.43;100879.13;5027671;28;20422;-76
2022/02/22 05:40:28;;;;;;;15.77;4.10;;;;;;;5.23;81.83;100877.66;5026041;28;20809;-75
2022/02/22 05:42:53;;;;;;;14.67;4.57;;;;;;;5.24;81.59;100886.53;5026818;28;20405;-76
2022/02/22 05:45:18;;;;;;;11.00;4.70;;;;;;;5.18;81.81;100893.53;5027729;28;20411;-76
2022/02/22 05:47:44;;;;;;;16.37;5.70;;;;;;;5.18;81.78;100885.47;5028703;28;20444;-76
2022/02/22 05:50:09;;;;;;;11.63;4.20;;;;;;;5.20;81.88;100885.28;5025764;28;20461;-76
2022/02/22 05:52:35;;;;;;;9.77;4.10;;;;;;;5.16;81.76;100897.47;5027987;28;20423;-76
2022/02/22 05:55:00;;;;;;;11.52;3.92;;;;;;;5.15;81.58;100885.88;5028366;28;20512;-76
2022/02/22 05:57:26;;;;;;;17.47;7.30;;;;;;;5.14;81.98;100892.28;5031188;28;20518;-77
2022/02/22 05:59:52;;;;;;;16.60;4.33;;;;;;;5.09;82.02;100902.81;5032260;28;20396;-77
2022/02/22 06:02:17;;;;;;;18.27;5.70;;;;;;;5.09;82.14;100902.81;5031604;28;20399;-77
2022/02/22 06:04:42;;;;;;;12.47;4.13;;;;;;;5.07;82.35;100899.47;5032221;28;20403;-77
2022/02/22 06:07:07;;;;;;;14.83;4.60;;;;;;;5.06;82.37;100891.63;5029880;28;20441;-77
2022/02/22 06:09:33;;;;;;;17.27;5.50;;;;;;;5.03;82.20;100902.75;5024111;28;20400;-79
2022/02/22 06:11:58;;;;;;;15.90;5.20;;;;;;;4.98;82.44;100897.97;5030648;28;20400;-79
2022/02/22 06:14:23;;;;;;;16.60;4.23;;;;;;;4.98;82.50;100907.88;5025040;28;20399;-77
2022/02/22 06:16:53;;;;;;;15.90;3.97;;;;;;;4.93;82.74;100905.81;5040155;28;20794;-77
2022/02/22 06:19:19;;;;;;;12.37;3.43;;;;;;;4.93;82.77;100908.50;5034753;28;20933;-76
2022/02/22 06:21:44;;;;;;;13.77;3.67;;;;;;;4.98;82.28;100918.63;5033408;28;20406;-76
2022/02/22 06:24:10;;;;;;;16.03;3.70;;;;;;;4.99;82.33;100922.97;5032027;28;21005;-76
2022/02/22 06:26:35;;;;;;;12.30;3.50;;;;;;;4.93;82.60;100926.47;5028998;28;20430;-76
2022/02/22 06:29:00;;;;;;;14.83;3.57;;;;;;;4.95;82.42;100929.75;5038356;28;20406;-76
2022/02/22 06:31:26;;;;;;;15.55;4.53;;;;;;;4.93;82.58;100937.19;5033261;28;20406;-76
2022/02/22 06:33:51;;;;;;;14.70;3.90;;;;;;;4.93;82.70;100939.88;5029164;28;20467;-78
2022/02/22 06:36:16;;;;;;;21.77;7.50;;;;;;;4.94;82.58;100941.56;5035925;28;20416;-76
2022/02/22 06:38:42;;;;;;;19.23;5.13;;;;;;;4.97;82.22;100950.03;5034799;28;20768;-76
2022/02/22 06:41:07;;;;;;;15.47;5.10;;;;;;;5.01;82.71;100953.97;5027914;28;20404;-78
2022/02/22 06:43:32;;;;;;;13.15;3.92;;;;;;;5.06;82.36;100961.47;5027433;28;20391;-76
2022/02/22 06:45:57;;;;;;;17.33;4.97;;;;;;;5.05;82.15;100960.63;5032250;28;20403;-76
2022/02/22 06:48:23;;;;;;;14.97;4.20;;;;;;;5.06;82.36;100964.97;5023944;28;20413;-76
2022/02/22 06:50:48;;;;;;;17.03;3.87;;;;;;;5.08;82.08;100965.59;5034367;28;20406;-76
2022/02/22 06:53:13;;;;;;;11.60;4.20;;;;;;;5.05;82.70;100979.44;5042617;28;20761;-75
2022/02/22 06:55:39;;;;;;;14.77;3.92;;;;;;;5.04;82.56;100980.44;5033391;28;20409;-75
2022/02/22 06:58:07;;;;;;;14.20;3.65;;;;;;;5.05;82.62;100981.28;5033449;28;20510;-75
2022/02/22 07:00:34;;;;;;;17.40;4.15;;;;;;;5.07;82.56;100979.25;5028054;28;20954;-75
2022/02/22 07:03:02;;;;;;;19.75;4.85;;;;;;;5.13;82.12;100987.34;5033603;28;20477;-75
2022/02/22 07:05:27;;;;;;;15.07;4.07;;;;;;;5.14;82.00;100997.06;5030452;28;20399;-74
2022/02/22 07:07:53;;;;;;;15.83;3.97;;;;;;;5.16;82.34;101002.25;5033273;28;20419;-77
2022/02/22 07:10:18;;;;;;;17.80;4.00;;;;;;;5.20;82.12;101007.00;5034333;28;21062;-79
2022/02/22 07:12:44;;;;;;;13.32;3.50;;;;;;;5.17;82.33;101003.91;5035178;28;20403;-78
2022/02/22 07:15:10;;;;;;;16.75;4.15;;;;;;;5.24;82.25;101007.44;5032698;28;20502;-78
2022/02/22 07:18:04;;;;;;;13.73;3.83;;;;;;;5.32;82.09;101015.38;5033186;28;20415;-80
2022/02/22 07:20:29;;;;;;;16.33;4.40;;;;;;;5.41;81.86;101006.13;5039816;28;20411;-80
2022/02/22 07:22:59;;;;;;;12.30;3.60;;;;;;;5.54;81.86;101005.34;5027645;28;20409;-78
2022/02/22 07:25:25;;;;;;;16.02;4.88;;;;;;;5.64;81.67;101014.72;5026851;28;20406;-79
2022/02/22 07:27:51;;;;;;;11.88;3.17;;;;;;;5.74;81.33;101019.72;5033967;28;20431;-76
2022/02/22 07:30:18;;;;;;;14.15;3.42;;;;;;;6.00;80.83;101027.94;5025638;28;20439;-79
2022/02/22 07:32:45;;;;;;;14.00;3.08;;;;;;;6.32;79.90;101033.66;5029628;28;20402;-78
2022/02/22 07:35:11;;;;;;;12.43;3.80;;;;;;;6.54;78.92;101032.44;5031474;28;20445;-78
2022/02/22 07:37:38;;;;;;;14.60;2.83;;;;;;;6.53;78.76;101031.63;5062587;28;20502;-76
2022/02/22 07:40:05;;;;;;;15.68;3.40;;;;;;;6.49;79.01;101037.59;5027738;28;20399;-75
2022/02/22 07:42:30;;;;;;;13.68;3.53;;;;;;;6.59;78.35;101040.72;5032676;28;20449;-78
2022/02/22 07:44:55;;;;;;;15.30;3.17;;;;;;;6.65;77.84;101051.50;5032316;28;20797;-78
2022/02/22 07:47:20;;;;;;;15.73;3.07;;;;;;;6.57;77.82;101059.81;5032308;28;20407;-78
2022/02/22 07:49:46;;;;;;;14.35;3.25;;;;;;;6.46;78.55;101056.84;5032175;28;20407;-77
2022/02/22 07:52:11;;;;;;;15.83;3.90;;;;;;;6.51;78.32;101062.47;5032397;28;20414;-78
2022/02/22 07:54:37;;;;;;;17.03;4.90;;;;;;;6.44;78.76;101059.78;5028554;28;20407;-77
2022/02/22 07:57:03;;;;;;;15.40;4.60;;;;;;;6.49;78.84;101062.66;5028214;28;20411;-77
2022/02/22 07:59:28;;;;;;;15.63;5.22;;;;;;;6.56;78.79;101068.06;5020671;28;20411;-77
2022/02/22 08:01:54;;;;;;;14.27;4.75;;;;;;;6.62;78.08;101072.63;5031262;28;20396;-78
2022/02/22 08:04:20;;;;;;;19.07;4.60;;;;;;;6.62;78.38;101080.72;5030585;28;20403;-76
2022/02/22 08:06:45;;;;;;;16.85;5.97;;;;;;;6.58;78.82;101087.56;5030501;28;20982;-78
2022/02/22 08:09:10;;;;;;;20.10;7.13;;;;;;;6.58;78.43;101092.94;5022580;28;20440;-78
2022/02/22 08:11:36;;;;;;;18.33;5.20;;;;;;;6.62;78.89;101103.09;5031289;28;20411;-78
2022/02/22 08:14:02;;;;;;;22.93;6.47;;;;;;;6.67;78.55;101100.63;5026725;28;20488;-78
2022/02/22 08:16:28;;;;;;;16.58;5.07;;;;;;;6.76;77.43;101112.03;5018633;28;20419;-78
2022/02/22 08:18:54;;;;;;;15.82;4.60;;;;;;;6.89;77.25;101122.00;5021436;28;20419;-78
2022/02/22 08:21:21;;;;;;;13.10;3.85;;;;;;;6.86;77.74;101119.72;5024055;28;20762;-78
2022/02/22 08:23:46;;;;;;;19.75;6.00;;;;;;;6.97;77.13;101128.06;5021970;28;20506;-78
2022/02/22 08:26:12;;;;;;;29.07;7.77;;;;;;;7.07;76.75;101115.00;5021906;28;20877;-79
2022/02/22 08:28:37;;;;;;;15.67;3.50;;;;;;;7.13;75.93;101118.72;5028374;28;20953;-78
2022/02/22 08:31:02;;;;;;;17.20;5.22;;;;;;;7.16;75.93;101127.25;5027770;28;20415;-78
2022/02/22 08:33:28;;;;;;;19.17;4.80;;;;;;;7.03;76.54;101129.91;5029424;28;20407;-78
2022/02/22 08:35:53;;;;;;;25.13;4.87;;;;;;;7.08;76.47;101116.63;5032164;28;20480;-78
2022/02/22 08:38:18;;;;;;;25.03;6.90;;;;;;;7.09;76.37;101126.41;5023858;28;20808;-78
2022/02/22 08:40:43;;;;;;;16.37;4.80;;;;;;;7.19;76.01;101118.72;5023962;28;20494;-78
2022/02/22 08:43:09;;;;;;;14.10;3.67;;;;;;;7.23;75.81;101132.63;5032485;28;20407;-78
2022/02/22 08:45:34;;;;;;;22.33;5.17;;;;;;;7.29;75.78;101123.72;5026614;28;20464;-77
2022/02/22 08:48:00;;;;;;;21.88;5.75;;;;;;;7.24;76.35;101128.91;5021078;28;20409;-77
2022/02/22 08:50:26;;;;;;;16.20;4.63;;;;;;;7.20;76.47;101135.75;5030856;28;20470;-78
2022/02/22 08:52:51;;;;;;;14.93;4.28;;;;;;;7.20;76.50;101138.44;5019838;28;20414;-77
2022/02/22 08:55:17;;;;;;;10.27;4.13;;;;;;;7.21;76.62;101142.81;5031674;28;20409;-78
2022/02/22 08:57:42;;;;;;;16.47;4.67;;;;;;;7.23;76.71;101140.72;5024001;28;20495;-78
2022/02/22 09:00:10;;;;;;;12.67;4.17;;;;;;;7.31;76.07;101135.94;5034588;28;20407;-78
2022/02/22 09:02:39;;;;;;;16.00;4.70;;;;;;;7.38;76.15;101129.72;5017949;28;20401;-78
2022/02/22 09:05:06;;;;;;;12.63;4.03;;;;;;;7.45;76.15;101128.69;5018443;28;20775;-78
2022/02/22 09:07:31;;;;;;;22.73;6.05;;;;;;;7.48;76.15;101117.47;5036299;28;20494;-78
2022/02/22 09:09:56;;;;;;;18.00;4.43;;;;;;;7.71;75.87;101122.44;5038017;28;20497;-78
2022/02/22 09:12:22;;;;;;;17.03;4.87;;;;;;;7.95;74.66;101121.78;5025090;28;20395;-79
2022/02/22 09:14:47;;;;;;;17.52;4.55;;;;;;;8.18;73.95;101119.41;5024808;28;20422;-78
2022/02/22 09:17:12;;;;;;;19.50;5.90;;;;;;;8.26;73.69;101112.97;5014656;28;20792;-77
2022/02/22 09:19:38;;;;;;;17.70;5.17;;;;;;;8.23;73.67;101113.38;5004034;28;20413;-75
2022/02/22 09:22:04;;;;;;;21.17;5.07;;;;;;;8.38;73.83;101107.72;5018889;28;20403;-78
2022/02/22 09:24:29;;;;;;;18.38;4.00;;;;;;;8.40;73.24;101111.06;5020145;28;20445;-75
2022/02/22 09:26:54;;;;;;;15.33;5.00;;;;;;;8.40;72.82;101108.38;5023585;28;20501;-77
2022/02/22 09:29:20;;;;;;;21.73;5.32;;;;;;;8.47;72.74;101115.38;5018378;28;20402;-77
2022/02/22 09:31:48;;;;;;;17.10;5.30;;;;;;;8.44;72.96;101113.09;5025111;28;20411;-75
2022/02/22 09:34:14;;;;;;;22.92;5.78;;;;;;;8.49;73.25;101113.31;5020912;28;20426;-75
2022/02/22 09:36:39;;;;;;;20.93;5.57;;;;;;;8.67;71.95;101112.56;5012068;28;20418;-75
2022/02/22 09:39:04;;;;;;;17.03;5.90;;;;;;;8.86;71.86;101100.81;5019656;28;20426;-76
2022/02/22 09:41:30;;;;;;;19.30;5.27;;;;;;;8.78;72.11;101096.50;5027197;28;20398;-76
2022/02/22 09:43:55;;;;;;;19.53;6.00;;;;;;;8.78;72.26;101099.22;5019810;28;20975;-77
2022/02/22 09:46:20;;;;;;;21.57;5.93;;;;;;;8.93;72.36;101095.34;5024372;28;20408;-75
2022/02/22 09:48:45;;;;;;;21.83;6.43;;;;;;;9.15;70.11;101094.78;5033718;28;20399;-75
2022/02/22 09:51:11;;;;;;;21.90;5.60;;;;;;;8.97;70.80;101089.31;5019103;28;20411;-75
2022/02/22 09:53:37;;;;;;;19.87;5.30;;;;;;;9.01;70.30;101093.22;5017964;28;20413;-75
2022/02/22 09:56:04;;;;;;;25.20;5.63;;;;;;;8.72;70.97;101094.69;5020239;28;20873;-78
2022/02/22 09:58:29;;;;;;;22.43;5.67;;;;;;;8.60;71.94;101088.28;5023129;28;20498;-78
2022/02/22 10:00:59;;;;;;;22.57;5.40;;;;;;;8.56;71.91;101091.66;5022834;28;20497;-77
2022/02/22 10:03:24;;;;;;;26.43;6.83;;;;;;;8.37;72.55;101081.75;5020856;28;20456;-77
2022/02/22 10:05:58;;;;;;;19.67;5.60;;;;;;;8.28;72.57;101092.81;5028807;28;20748;-77
2022/02/22 10:08:31;;;;;;;18.92;5.38;;;;;;;8.37;72.64;101093.41;5022341;28;20780;-76
2022/02/22 10:11:03;;;;;;;23.58;5.40;;;;;;;8.45;72.28;101084.22;5016597;28;20416;-78
2022/02/22 10:13:29;;;;;;;23.67;5.78;;;;;;;8.34;72.53;101086.56;5018739;28;20412;-76
2022/02/22 10:15:55;;;;;;;19.73;5.43;;;;;;;8.39;72.32;101079.69;5020535;28;20494;-75
2022/02/22 10:18:21;;;;;;;26.80;5.82;;;;;;;8.40;72.29;101084.88;5015118;28;20433;-75
2022/02/22 10:20:49;;;;;;;18.27;4.95;;;;;;;8.40;71.81;101084.06;5020293;28;20416;-77
2022/02/22 10:23:26;;;;;;;18.70;4.85;;;;;;;8.41;71.89;101078.41;5019167;28;20423;-75
2022/02/22 10:25:55;;;;;;;23.67;5.27;;;;;;;8.33;72.64;101098.41;5013980;28;20416;-77
2022/02/22 10:28:21;;;;;;;26.00;6.45;;;;;;;8.18;72.43;101089.72;5014511;28;20405;-77
2022/02/22 10:30:50;;;;;;;24.17;6.32;;;;;;;8.14;72.87;101096.56;5026837;28;20420;-75
2022/02/22 10:33:17;;;;;;;19.35;5.53;;;;;;;8.19;73.62;101104.88;5025160;28;20419;-77
2022/02/22 10:35:46;;;;;;;19.60;4.65;;;;;;;8.19;73.50;101112.97;5017187;28;20493;-77
2022/02/22 10:38:12;;;;;;;24.52;5.53;;;;;;;8.22;73.69;101109.84;5047201;28;20411;-77
2022/02/22 10:40:40;;;;;;;29.63;6.10;;;;;;;8.25;74.50;101103.19;5036013;28;20406;-77
2022/02/22 10:43:06;;;;;;;23.70;5.88;;;;;;;8.18;74.54;101100.50;5024119;28;20432;-75
2022/02/22 10:45:31;;;;;;;29.10;6.53;;;;;;;8.19;74.44;101098.66;5027461;28;20408;-78
2022/02/22 10:47:57;;;;;;;27.60;6.13;;;;;;;8.13;74.31;101104.91;5028126;28;20492;-77
2022/02/22 10:50:28;;;;;;;23.80;5.90;;;;;;;8.16;74.04;101107.19;5030757;28;20468;-75
2022/02/22 10:52:53;;;;;;;21.38;5.32;;;;;;;8.09;73.61;101106.38;5021446;28;20442;-75
2022/02/22 10:55:18;;;;;;;25.53;5.70;;;;;;;8.10;73.38;101110.72;5029558;28;20437;-75
2022/02/22 10:57:46;;;;;;;22.43;6.57;;;;;;;8.04;73.35;101120.50;5044554;28;20438;-75
2022/02/22 11:00:12;;;;;;;23.42;5.20;;;;;;;8.01;73.51;101112.81;5030040;28;20428;-75
2022/02/22 11:02:38;;;;;;;21.33;5.63;;;;;;;8.07;73.54;101111.13;5032089;28;20430;-75
2022/02/22 11:05:04;;;;;;;21.40;6.50;;;;;;;8.25;73.21;101104.03;5025305;28;20906;-76
2022/02/22 11:07:29;;;;;;;25.95;5.25;;;;;;;8.59;71.93;101102.88;5034355;28;20890;-75
2022/02/22 11:09:56;;;;;;;24.10;5.10;;;;;;;8.53;71.08;101094.78;5014994;28;20435;-76
2022/02/22 11:12:30;;;;;;;25.08;5.07;;;;;;;8.53;71.08;101090.19;5038458;28;20414;-76
2022/02/22 11:15:06;;;;;;;22.42;5.47;;;;;;;8.44;71.05;101085.25;5013703;28;21007;-76
2022/02/22 11:17:44;;;;;;;27.00;4.95;;;;;;;8.45;70.78;101082.34;5027410;28;20905;-77
2022/02/22 11:20:29;;;;;;;23.33;5.60;;;;;;;8.77;70.13;101075.09;5022278;28;21009;-76
2022/02/22 11:22:57;;;;;;;20.58;6.45;;;;;;;8.97;69.21;101061.44;5016942;28;20494;-79